createdAt,value
2023-08-04T00:01:17.643Z,100272.19
2023-08-04T00:03:46.235Z,100274.59
2023-08-04T00:06:13.602Z,100265.63
2023-08-04T00:08:41.120Z,100277.91
2023-08-04T00:11:08.410Z,100270.56
2023-08-04T00:13:35.799Z,100261.16
2023-08-04T00:16:10.557Z,100281.19
2023-08-04T00:18:38.175Z,100272.59
2023-08-04T00:21:06.142Z,100266.50
2023-08-04T00:23:33.459Z,100282.84
2023-08-04T00:26:00.907Z,100268.16
2023-08-04T00:28:28.792Z,100282.06
2023-08-04T00:30:56.207Z,100284.50
2023-08-04T00:33:24.218Z,100289.38
2023-08-04T00:35:51.389Z,100289.44
2023-08-04T00:38:18.661Z,100289.38
2023-08-04T00:40:45.943Z,100293.88
2023-08-04T00:43:13.626Z,100284.53
2023-08-04T00:45:41.211Z,100297.59
2023-08-04T00:48:09.984Z,100286.16
2023-08-04T00:50:37.559Z,100275.13
2023-08-04T00:53:05.407Z,100278.00
2023-08-04T00:55:35.861Z,100285.34
2023-08-04T00:58:03.105Z,100273.91
2023-08-04T01:00:30.563Z,100282.84
2023-08-04T01:02:57.936Z,100286.13
2023-08-04T01:05:37.975Z,100276.72
2023-08-04T01:08:20.150Z,100272.19
2023-08-04T01:10:59.706Z,100270.56
2023-08-04T01:13:30.722Z,100294.28
2023-08-04T01:16:00.033Z,100288.16
2023-08-04T01:18:27.314Z,100289.75
2023-08-04T01:20:54.487Z,100294.25
2023-08-04T01:23:22.008Z,100286.94
2023-08-04T01:25:49.880Z,100273.91
2023-08-04T01:28:18.107Z,100303.69
2023-08-04T01:30:48.431Z,100302.47
2023-08-04T01:33:16.643Z,100295.53
2023-08-04T01:35:44.417Z,100302.47
2023-08-04T01:38:12.136Z,100286.94
2023-08-04T01:40:40.548Z,100310.63
2023-08-04T01:43:08.320Z,100317.13
2023-08-04T01:45:35.633Z,100317.56
2023-08-04T01:48:03.793Z,100319.59
2023-08-04T01:50:31.048Z,100308.97
2023-08-04T01:52:59.994Z,100324.50
2023-08-04T01:55:27.244Z,100312.63
2023-08-04T01:57:54.458Z,100301.66
2023-08-04T02:00:21.800Z,100317.16
2023-08-04T02:02:48.980Z,100303.31
2023-08-04T02:05:16.607Z,100309.03
2023-08-04T02:07:43.936Z,100327.41
2023-08-04T02:10:11.429Z,100322.50
2023-08-04T02:12:38.966Z,100321.28
2023-08-04T02:15:07.360Z,100309.41
2023-08-04T02:17:36.582Z,100325.31
2023-08-04T02:20:06.717Z,100318.75
2023-08-04T02:22:33.922Z,100338.34
2023-08-04T02:25:01.360Z,100315.50
2023-08-04T02:27:31.160Z,100331.44
2023-08-04T02:29:58.337Z,100332.69
2023-08-04T02:32:25.905Z,100339.25
2023-08-04T02:34:53.346Z,100344.16
2023-08-04T02:37:22.752Z,100338.81
2023-08-04T02:39:50.010Z,100334.75
2023-08-04T02:42:17.358Z,100337.59
2023-08-04T02:44:44.729Z,100346.16
2023-08-04T02:47:12.193Z,100340.41
2023-08-04T02:49:40.943Z,100340.44
2023-08-04T02:52:15.593Z,100343.31
2023-08-04T02:54:46.318Z,100353.94
2023-08-04T02:57:13.711Z,100351.47
2023-08-04T02:59:41.066Z,100350.66
2023-08-04T03:02:08.788Z,100357.59
2023-08-04T03:04:36.369Z,100362.91
2023-08-04T03:07:03.737Z,100366.19
2023-08-04T03:09:30.970Z,100360.88
2023-08-04T03:11:58.588Z,100344.91
2023-08-04T03:14:26.016Z,100360.84
2023-08-04T03:16:53.311Z,100354.34
2023-08-04T03:19:20.530Z,100365.34
2023-08-04T03:21:48.092Z,100352.25
2023-08-04T03:24:16.006Z,100351.84
2023-08-04T03:26:43.588Z,100369.00
2023-08-04T03:29:11.246Z,100369.81
2023-08-04T03:31:38.802Z,100371.88
2023-08-04T03:34:06.059Z,100371.47
2023-08-04T03:36:33.346Z,100360.44
2023-08-04T03:39:01.303Z,100375.56
2023-08-04T03:41:28.701Z,100374.31
2023-08-04T03:43:56.887Z,100393.06
2023-08-04T03:46:24.601Z,100373.44
2023-08-04T03:48:52.725Z,100386.06
2023-08-04T03:51:21.335Z,100375.47
2023-08-04T03:53:49.013Z,100377.94
2023-08-04T03:56:16.256Z,100385.72
2023-08-04T03:58:43.434Z,100388.97
2023-08-04T04:01:11.133Z,100387.69
2023-08-04T04:03:38.941Z,100391.31
2023-08-04T04:06:06.337Z,100382.28
2023-08-04T04:08:33.695Z,100386.38
2023-08-04T04:11:01.231Z,100385.50
2023-08-04T04:13:28.811Z,100381.50
2023-08-04T04:15:57.357Z,100379.47
2023-08-04T04:18:24.770Z,100384.84
2023-08-04T04:20:52.080Z,100383.19
2023-08-04T04:23:19.472Z,100377.94
2023-08-04T04:25:46.896Z,100374.31
2023-08-04T04:28:14.711Z,100397.63
2023-08-04T04:30:42.200Z,100378.84
2023-08-04T04:33:10.653Z,100402.97
2023-08-04T04:35:38.252Z,100405.38
2023-08-04T04:38:05.462Z,100404.59
2023-08-04T04:40:33.170Z,100412.38
2023-08-04T04:43:00.692Z,100399.69
2023-08-04T04:45:28.125Z,100411.13
2023-08-04T04:47:57.158Z,100409.09
2023-08-04T04:50:24.731Z,100413.59
2023-08-04T04:52:53.364Z,100396.84
2023-08-04T04:55:20.696Z,100398.06
2023-08-04T04:57:47.951Z,100409.06
2023-08-04T05:00:15.531Z,100411.09
2023-08-04T05:02:42.813Z,100403.34
2023-08-04T05:05:10.808Z,100406.63
2023-08-04T05:07:38.207Z,100397.63
2023-08-04T05:10:06.242Z,100402.13
2023-08-04T05:12:33.506Z,100406.97
2023-08-04T05:15:00.963Z,100403.75
2023-08-04T05:17:28.202Z,100391.84
2023-08-04T05:19:55.451Z,100406.97
2023-08-04T05:22:23.149Z,100416.75
2023-08-04T05:24:57.687Z,100413.00
2023-08-04T05:27:32.956Z,100401.13
2023-08-04T05:30:01.698Z,100395.78
2023-08-04T05:32:37.062Z,100416.53
2023-08-04T05:35:07.153Z,100414.03
2023-08-04T05:37:35.039Z,100423.75
2023-08-04T05:40:05.894Z,100415.47
2023-08-04T05:42:33.298Z,100420.69
2023-08-04T05:45:00.709Z,100421.78
2023-08-04T05:47:29.144Z,100421.75
2023-08-04T05:49:56.806Z,100422.13
2023-08-04T05:52:24.053Z,100430.22
2023-08-04T05:54:54.343Z,100433.41
2023-08-04T05:57:21.522Z,100427.16
2023-08-04T05:59:48.924Z,100408.63
2023-08-04T06:02:18.184Z,100428.94
2023-08-04T06:04:45.850Z,100412.16
2023-08-04T06:07:13.196Z,100425.47
2023-08-04T06:09:40.620Z,100416.81
2023-08-04T06:12:08.748Z,100420.00
2023-08-04T06:14:36.018Z,100397.13
2023-08-04T06:17:03.365Z,100434.59
2023-08-04T06:19:30.800Z,100427.91
2023-08-04T06:21:58.066Z,100424.63
2023-08-04T06:24:29.218Z,100442.63
2023-08-04T06:26:56.461Z,100426.94
2023-08-04T06:29:23.708Z,100435.03
2023-08-04T06:31:53.067Z,100438.22
2023-08-04T06:34:20.950Z,100436.06
2023-08-04T06:36:48.974Z,100443.84
2023-08-04T06:39:17.294Z,100436.44
2023-08-04T06:41:46.104Z,100445.38
2023-08-04T06:44:15.053Z,100438.66
2023-08-04T06:46:43.029Z,100424.81
2023-08-04T06:49:10.491Z,100422.84
2023-08-04T06:51:38.121Z,100427.91
2023-08-04T06:54:05.487Z,100439.00
2023-08-04T06:56:34.093Z,100427.59
2023-08-04T06:59:01.415Z,100434.00
2023-08-04T07:01:28.840Z,100441.25
2023-08-04T07:03:56.100Z,100426.09
2023-08-04T07:06:24.810Z,100432.44
2023-08-04T07:08:52.163Z,100434.38
2023-08-04T07:11:19.552Z,100435.81
2023-08-04T07:13:46.824Z,100431.75
2023-08-04T07:16:14.621Z,100441.56
2023-08-04T07:18:42.063Z,100440.00
2023-08-04T07:21:11.394Z,100435.88
2023-08-04T07:23:39.743Z,100448.84
2023-08-04T07:26:08.790Z,100442.88
2023-08-04T07:28:37.760Z,100442.44
2023-08-04T07:31:10.817Z,100452.59
2023-08-04T07:33:38.967Z,100446.69
2023-08-04T07:36:06.338Z,100431.94
2023-08-04T07:38:34.003Z,100442.84
2023-08-04T07:41:01.609Z,100436.53
2023-08-04T07:43:28.821Z,100443.31
2023-08-04T07:45:56.166Z,100435.44
2023-08-04T07:48:23.782Z,100431.25
2023-08-04T07:50:52.653Z,100441.72
2023-08-04T07:53:20.478Z,100442.53
2023-08-04T07:55:58.365Z,100443.66
2023-08-04T07:58:26.493Z,100441.00
2023-08-04T08:00:54.066Z,100447.00
2023-08-04T08:03:21.968Z,100427.41
2023-08-04T08:05:49.472Z,100439.78
2023-08-04T08:08:19.752Z,100442.56
2023-08-04T08:10:47.113Z,100445.66
2023-08-04T08:13:14.428Z,100449.66
2023-08-04T08:15:41.869Z,100441.38
2023-08-04T08:18:09.888Z,100440.47
2023-08-04T08:20:41.820Z,100448.97
2023-08-04T08:23:10.460Z,100465.00
2023-08-04T08:25:38.374Z,100451.47
2023-08-04T08:28:05.875Z,100457.88
2023-08-04T08:30:33.580Z,100459.03
2023-08-04T08:33:01.839Z,100446.06
2023-08-04T08:35:29.233Z,100457.31
2023-08-04T08:37:57.744Z,100452.13
2023-08-04T08:40:27.811Z,100446.50
2023-08-04T08:42:58.656Z,100437.66
2023-08-04T08:45:30.205Z,100454.72
2023-08-04T08:47:58.273Z,100446.88
2023-08-04T08:50:27.758Z,100463.38
2023-08-04T08:53:03.605Z,100447.63
2023-08-04T08:55:32.664Z,100444.00
2023-08-04T08:58:02.144Z,100459.16
2023-08-04T09:00:30.078Z,100454.88
2023-08-04T09:02:58.633Z,100451.06
2023-08-04T09:05:29.385Z,100456.47
2023-08-04T09:07:56.989Z,100448.69
2023-08-04T09:10:24.655Z,100447.00
2023-08-04T09:12:53.320Z,100454.75
2023-08-04T09:15:20.671Z,100448.50
2023-08-04T09:17:47.895Z,100456.03
2023-08-04T09:20:29.538Z,100464.38
2023-08-04T09:22:57.606Z,100437.59
2023-08-04T09:25:26.096Z,100453.63
2023-08-04T09:27:53.523Z,100453.75
2023-08-04T09:30:20.880Z,100448.47
2023-08-04T09:32:51.653Z,100448.59
2023-08-04T09:35:19.129Z,100439.91
2023-08-04T09:37:46.516Z,100438.47
2023-08-04T09:40:21.419Z,100455.09
2023-08-04T09:42:49.473Z,100436.34
2023-08-04T09:45:20.044Z,100444.72
2023-08-04T09:47:49.125Z,100417.19
2023-08-04T09:50:21.288Z,100426.63
2023-08-04T09:52:48.692Z,100432.44
2023-08-04T09:55:16.329Z,100439.69
2023-08-04T09:57:44.804Z,100440.41
2023-08-04T10:00:15.223Z,100434.34
2023-08-04T10:02:43.055Z,100442.44
2023-08-04T10:05:12.852Z,100444.88
2023-08-04T10:07:42.011Z,100436.78
2023-08-04T10:10:09.866Z,100437.84
2023-08-04T10:12:38.477Z,100439.84
2023-08-04T10:15:06.996Z,100433.09
2023-08-04T10:17:34.558Z,100430.94
2023-08-04T10:20:05.452Z,100426.88
2023-08-04T10:22:34.214Z,100431.03
2023-08-04T10:25:02.020Z,100427.63
2023-08-04T10:27:30.907Z,100428.72
2023-08-04T10:30:09.645Z,100416.44
2023-08-04T10:32:38.846Z,100438.72
2023-08-04T10:35:26.892Z,100439.50
2023-08-04T10:38:00.421Z,100432.72
2023-08-04T10:40:32.890Z,100432.25
2023-08-04T10:43:10.147Z,100411.22
2023-08-04T10:45:54.399Z,100421.63
2023-08-04T10:48:23.090Z,100426.81
2023-08-04T10:50:51.120Z,100425.72
2023-08-04T10:53:19.082Z,100416.13
2023-08-04T10:55:55.724Z,100424.59
2023-08-04T10:58:25.712Z,100417.75
2023-08-04T11:00:54.855Z,100413.25
2023-08-04T11:03:30.456Z,100408.50
2023-08-04T11:05:58.154Z,100418.75
2023-08-04T11:08:26.053Z,100399.66
2023-08-04T11:10:59.109Z,100417.78
2023-08-04T11:13:26.980Z,100405.75
2023-08-04T11:15:54.961Z,100402.72
2023-08-04T11:18:28.089Z,100400.78
2023-08-04T11:20:55.346Z,100392.31
2023-08-04T11:23:30.684Z,100412.34
2023-08-04T11:25:59.714Z,100406.78
2023-08-04T11:28:27.500Z,100417.78
2023-08-04T11:31:07.480Z,100419.75
2023-08-04T11:33:35.304Z,100418.81
2023-08-04T11:36:05.383Z,100406.44
2023-08-04T11:38:33.106Z,100403.34
2023-08-04T11:41:02.445Z,100413.03
2023-08-04T11:43:34.417Z,100407.41
2023-08-04T11:46:07.499Z,100415.06
2023-08-04T11:48:40.420Z,100415.63
2023-08-04T11:51:09.793Z,100409.84
2023-08-04T11:53:45.094Z,100418.97
2023-08-04T11:56:29.184Z,100404.03
2023-08-04T11:59:10.103Z,100397.91
2023-08-04T12:01:40.446Z,100402.28
2023-08-04T12:04:23.734Z,100409.09
2023-08-04T12:07:06.298Z,100400.69
2023-08-04T12:09:34.719Z,100392.34
2023-08-04T12:12:04.137Z,100401.47
2023-08-04T12:14:33.502Z,100398.78
2023-08-04T12:17:04.843Z,100402.63
2023-08-04T12:19:33.671Z,100386.03
2023-08-04T12:22:05.170Z,100398.31
2023-08-04T12:24:33.613Z,100399.34
2023-08-04T12:27:00.876Z,100391.19
2023-08-04T12:29:28.244Z,100384.22
2023-08-04T12:31:55.521Z,100386.66
2023-08-04T12:34:23.385Z,100381.88
2023-08-04T12:36:51.080Z,100386.41
2023-08-04T12:39:18.641Z,100370.22
2023-08-04T12:41:46.028Z,100362.59
2023-08-04T12:44:13.478Z,100383.03
2023-08-04T12:46:40.826Z,100386.75
2023-08-04T12:49:08.218Z,100393.22
2023-08-04T12:51:35.674Z,100393.94
2023-08-04T12:54:02.896Z,100380.44
2023-08-04T12:56:30.098Z,100386.19
2023-08-04T12:58:57.251Z,100377.03
2023-08-04T13:01:24.866Z,100365.91
2023-08-04T13:03:53.795Z,100384.53
2023-08-04T13:06:21.120Z,100392.13
2023-08-04T13:08:48.389Z,100394.63
2023-08-04T13:11:15.984Z,100390.00
2023-08-04T13:13:43.386Z,100387.09
2023-08-04T13:16:11.173Z,100401.19
2023-08-04T13:18:38.588Z,100391.03
2023-08-04T13:21:06.474Z,100394.16
2023-08-04T13:23:33.674Z,100384.41
2023-08-04T13:26:05.567Z,100373.00
2023-08-04T13:28:33.940Z,100387.84
2023-08-04T13:31:05.557Z,100386.94
2023-08-04T13:33:33.406Z,100394.09
2023-08-04T13:36:00.912Z,100391.91
2023-08-04T13:38:28.362Z,100390.06
2023-08-04T13:40:56.852Z,100382.44
2023-08-04T13:43:27.372Z,100373.41
2023-08-04T13:45:54.770Z,100384.06
2023-08-04T13:48:21.944Z,100392.94
2023-08-04T13:50:49.132Z,100383.25
2023-08-04T13:53:16.470Z,100366.94
2023-08-04T13:55:43.990Z,100393.63
2023-08-04T13:58:11.233Z,100379.09
2023-08-04T14:00:38.571Z,100384.88
2023-08-04T14:03:05.822Z,100393.63
2023-08-04T14:05:33.142Z,100386.13
2023-08-04T14:08:04.214Z,100408.03
2023-08-04T14:10:31.444Z,100390.63
2023-08-04T14:12:58.876Z,100381.13
2023-08-04T14:15:27.030Z,100389.63
2023-08-04T14:17:54.288Z,100387.75
2023-08-04T14:20:21.709Z,100388.47
2023-08-04T14:22:49.216Z,100383.75
2023-08-04T14:25:16.581Z,100391.34
2023-08-04T14:27:43.845Z,100377.97
2023-08-04T14:30:11.618Z,100369.13
2023-08-04T14:32:39.904Z,100383.34
2023-08-04T14:35:07.891Z,100392.06
2023-08-04T14:37:35.260Z,100386.13
2023-08-04T14:40:02.584Z,100383.16
2023-08-04T14:42:31.264Z,100377.38
2023-08-04T14:44:58.636Z,100396.44
2023-08-04T14:47:26.227Z,100391.25
2023-08-04T14:49:53.621Z,100388.97
2023-08-04T14:52:20.905Z,100392.19
2023-08-04T14:54:50.426Z,100393.16
2023-08-04T14:57:17.737Z,100384.59
2023-08-04T14:59:45.175Z,100400.38
2023-08-04T15:02:12.606Z,100384.19
2023-08-04T15:04:40.047Z,100382.94
2023-08-04T15:07:07.359Z,100391.69
2023-08-04T15:09:34.599Z,100386.97
2023-08-04T15:12:01.936Z,100399.50
2023-08-04T15:14:29.748Z,100400.06
2023-08-04T15:16:57.148Z,100396.97
2023-08-04T15:19:24.614Z,100401.06
2023-08-04T15:21:51.990Z,100395.91
2023-08-04T15:24:19.288Z,100409.94
2023-08-04T15:26:47.286Z,100403.44
2023-08-04T15:29:14.960Z,100414.81
2023-08-04T15:31:42.245Z,100401.63
2023-08-04T15:34:09.591Z,100400.25
2023-08-04T15:36:36.910Z,100412.94
2023-08-04T15:39:04.321Z,100410.75
2023-08-04T15:41:31.528Z,100417.25
2023-08-04T15:43:58.812Z,100406.69
2023-08-04T15:46:26.175Z,100407.31
2023-08-04T15:48:53.373Z,100406.13
2023-08-04T15:51:20.958Z,100420.28
2023-08-04T15:53:49.036Z,100420.47
2023-08-04T15:56:16.208Z,100416.75
2023-08-04T15:58:43.517Z,100422.91
2023-08-04T16:01:10.916Z,100425.09
2023-08-04T16:03:38.131Z,100426.22
2023-08-04T16:06:05.440Z,100419.34
2023-08-04T16:08:33.019Z,100422.78
2023-08-04T16:11:01.972Z,100434.69
2023-08-04T16:13:29.299Z,100408.38
2023-08-04T16:16:08.092Z,100431.28
2023-08-04T16:18:38.300Z,100422.56
2023-08-04T16:21:07.611Z,100442.72
2023-08-04T16:23:36.310Z,100439.66
2023-08-04T16:26:03.968Z,100429.34
2023-08-04T16:28:32.778Z,100431.56
2023-08-04T16:31:00.720Z,100425.88
2023-08-04T16:33:28.855Z,100420.34
2023-08-04T16:35:56.273Z,100435.69
2023-08-04T16:38:24.353Z,100414.25
2023-08-04T16:40:56.985Z,100422.28
2023-08-04T16:43:25.976Z,100441.69
2023-08-04T16:45:54.941Z,100433.69
2023-08-04T16:48:22.593Z,100437.47
2023-08-04T16:50:49.871Z,100443.69
2023-08-04T16:53:21.019Z,100449.59
2023-08-04T16:55:53.334Z,100459.53
2023-08-04T16:58:21.266Z,100440.88
2023-08-04T17:00:48.473Z,100439.78
2023-08-04T17:03:15.840Z,100447.16
2023-08-04T17:05:43.215Z,100455.84
2023-08-04T17:08:10.539Z,100451.41
2023-08-04T17:10:41.561Z,100468.72
2023-08-04T17:13:08.778Z,100468.34
2023-08-04T17:15:39.111Z,100465.94
2023-08-04T17:18:12.547Z,100468.19
2023-08-04T17:20:40.782Z,100469.06
2023-08-04T17:23:08.335Z,100474.84
2023-08-04T17:25:35.675Z,100472.09
2023-08-04T17:28:03.175Z,100484.84
2023-08-04T17:30:30.594Z,100477.88
2023-08-04T17:32:58.365Z,100481.31
2023-08-04T17:35:25.936Z,100476.44
2023-08-04T17:37:53.376Z,100466.28
2023-08-04T17:40:20.915Z,100484.66
2023-08-04T17:42:48.205Z,100481.44
2023-08-04T17:45:15.978Z,100491.22
2023-08-04T17:47:43.274Z,100485.56
2023-08-04T17:50:10.804Z,100478.25
2023-08-04T17:52:38.788Z,100487.56
2023-08-04T17:55:06.563Z,100479.94
2023-08-04T17:57:36.930Z,100458.53
2023-08-04T18:00:08.263Z,100485.00
2023-08-04T18:02:44.864Z,100474.66
2023-08-04T18:05:12.321Z,100483.59
2023-08-04T18:07:39.825Z,100478.66
2023-08-04T18:10:07.769Z,100484.41
2023-08-04T18:12:35.068Z,100485.22
2023-08-04T18:15:02.439Z,100477.16
2023-08-04T18:17:32.913Z,100486.19
2023-08-04T18:20:00.283Z,100476.34
2023-08-04T18:22:27.550Z,100488.25
2023-08-04T18:24:56.241Z,100480.50
2023-08-04T18:27:23.490Z,100485.59
2023-08-04T18:29:50.855Z,100494.63
2023-08-04T18:32:18.917Z,100490.63
2023-08-04T18:34:46.370Z,100491.00
2023-08-04T18:37:14.004Z,100487.38
2023-08-04T18:39:41.325Z,100498.84
2023-08-04T18:42:09.769Z,100509.69
2023-08-04T18:44:38.382Z,100490.72
2023-08-04T18:47:05.771Z,100506.38
2023-08-04T18:49:38.948Z,100501.22
2023-08-04T18:52:06.437Z,100511.03
2023-08-04T18:54:34.031Z,100501.25
2023-08-04T18:57:01.349Z,100490.72
2023-08-04T18:59:28.849Z,100496.50
2023-08-04T19:01:59.121Z,100505.94
2023-08-04T19:04:28.471Z,100499.59
2023-08-04T19:06:56.116Z,100501.22
2023-08-04T19:09:23.338Z,100505.88
2023-08-04T19:11:50.733Z,100512.44
2023-08-04T19:14:22.304Z,100517.06
2023-08-04T19:16:50.500Z,100490.16
2023-08-04T19:19:18.842Z,100510.25
2023-08-04T19:21:46.120Z,100505.47
2023-08-04T19:24:16.488Z,100507.91
2023-08-04T19:26:44.323Z,100503.09
2023-08-04T19:29:34.210Z,100508.78
2023-08-04T19:32:04.515Z,100481.69
2023-08-04T19:34:32.929Z,100507.84
2023-08-04T19:37:00.344Z,100514.00
2023-08-04T19:39:27.871Z,100514.84
2023-08-04T19:41:55.327Z,100501.00
2023-08-04T19:44:22.883Z,100515.78
2023-08-04T19:46:50.425Z,100515.91
2023-08-04T19:49:17.923Z,100513.97
2023-08-04T19:51:45.883Z,100514.88
2023-08-04T19:54:13.456Z,100524.41
2023-08-04T19:56:40.870Z,100507.31
2023-08-04T19:59:08.094Z,100511.84
2023-08-04T20:01:35.576Z,100502.53
2023-08-04T20:04:02.802Z,100521.03
2023-08-04T20:06:30.286Z,100519.13
2023-08-04T20:08:57.589Z,100522.03
2023-08-04T20:11:24.974Z,100523.72
2023-08-04T20:13:52.572Z,100518.06
2023-08-04T20:16:22.704Z,100529.91
2023-08-04T20:18:51.398Z,100525.94
2023-08-04T20:21:22.092Z,100543.13
2023-08-04T20:23:49.685Z,100530.91
2023-08-04T20:26:17.054Z,100530.53
2023-08-04T20:28:46.216Z,100540.03
2023-08-04T20:31:17.216Z,100533.91
2023-08-04T20:33:44.893Z,100528.63
2023-08-04T20:36:15.724Z,100536.00
2023-08-04T20:38:43.431Z,100538.91
2023-08-04T20:41:12.576Z,100541.78
2023-08-04T20:43:41.885Z,100544.66
2023-08-04T20:46:10.710Z,100551.25
2023-08-04T20:48:38.734Z,100546.38
2023-08-04T20:51:09.024Z,100539.41
2023-08-04T20:53:39.528Z,100536.16
2023-08-04T20:56:08.770Z,100538.63
2023-08-04T20:58:38.846Z,100541.94
2023-08-04T21:01:12.476Z,100532.50
2023-08-04T21:03:42.484Z,100512.13
2023-08-04T21:06:09.999Z,100525.63
2023-08-04T21:08:37.301Z,100537.44
2023-08-04T21:11:05.928Z,100529.66
2023-08-04T21:13:33.607Z,100548.53
2023-08-04T21:16:01.910Z,100517.88
2023-08-04T21:18:29.448Z,100542.00
2023-08-04T21:20:58.470Z,100543.69
2023-08-04T21:23:26.883Z,100538.81
2023-08-04T21:25:54.318Z,100530.22
2023-08-04T21:28:22.808Z,100540.03
2023-08-04T21:30:54.105Z,100529.03
2023-08-04T21:33:24.528Z,100533.13
2023-08-04T21:36:00.148Z,100538.91
2023-08-04T21:38:28.548Z,100547.13
2023-08-04T21:40:59.111Z,100547.16
2023-08-04T21:43:29.577Z,100536.53
2023-08-04T21:45:58.128Z,100530.84
2023-08-04T21:48:25.399Z,100534.97
2023-08-04T21:50:52.714Z,100541.53
2023-08-04T21:53:20.358Z,100539.09
2023-08-04T21:55:53.912Z,100530.09
2023-08-04T21:58:21.193Z,100548.09
2023-08-04T22:00:48.476Z,100537.06
2023-08-04T22:03:15.770Z,100541.59
2023-08-04T22:05:45.621Z,100552.69
2023-08-04T22:08:12.853Z,100554.34
2023-08-04T22:10:40.061Z,100542.06
2023-08-04T22:13:07.283Z,100545.78
2023-08-04T22:15:34.567Z,100542.50
2023-08-04T22:18:01.910Z,100537.19
2023-08-04T22:20:29.580Z,100529.06
2023-08-04T22:22:57.160Z,100549.53
2023-08-04T22:25:24.520Z,100559.78
2023-08-04T22:27:51.772Z,100552.00
2023-08-04T22:30:18.971Z,100557.31
2023-08-04T22:32:47.392Z,100557.31
2023-08-04T22:35:14.687Z,100545.03
2023-08-04T22:37:42.304Z,100540.16
2023-08-04T22:40:11.323Z,100546.31
2023-08-04T22:42:38.836Z,100543.84
2023-08-04T22:45:06.901Z,100532.00
2023-08-04T22:47:34.344Z,100542.63
2023-08-04T22:50:01.672Z,100542.22
2023-08-04T22:52:30.951Z,100559.81
2023-08-04T22:54:58.471Z,100547.50
2023-08-04T22:57:25.900Z,100553.22
2023-08-04T22:59:57.539Z,100546.72
2023-08-04T23:02:25.746Z,100550.81
2023-08-04T23:04:53.500Z,100569.19
2023-08-04T23:07:25.983Z,100552.88
2023-08-04T23:09:56.643Z,100539.78
2023-08-04T23:12:24.007Z,100555.31
2023-08-04T23:14:54.277Z,100559.00
2023-08-04T23:17:24.443Z,100571.28
2023-08-04T23:19:51.847Z,100563.09
2023-08-04T23:22:19.198Z,100554.50
2023-08-04T23:24:49.037Z,100559.00
2023-08-04T23:27:16.226Z,100564.34
2023-08-04T23:29:44.052Z,100568.84
2023-08-04T23:32:11.627Z,100561.09
2023-08-04T23:34:38.991Z,100569.25
2023-08-04T23:37:09.385Z,100575.44
2023-08-04T23:39:38.956Z,100566.84
2023-08-04T23:42:06.538Z,100567.25
2023-08-04T23:44:33.793Z,100560.28
2023-08-04T23:47:01.177Z,100564.78
2023-08-04T23:49:28.494Z,100553.38
2023-08-04T23:51:55.773Z,100572.59
2023-08-04T23:54:23.199Z,100559.47
2023-08-04T23:56:51.950Z,100556.63
2023-08-04T23:59:22.455Z,100566.44
